createdAt,value
2023-02-14T00:04:48.706Z,2.21
2023-02-14T00:09:51.752Z,2.08
2023-02-14T00:15:13.405Z,2.00
2023-02-14T00:20:16.676Z,1.93
2023-02-14T00:25:20.023Z,1.87
2023-02-14T00:30:23.562Z,1.84
2023-02-14T00:35:26.539Z,1.83
2023-02-14T00:41:27.168Z,1.79
2023-02-14T00:46:30.288Z,1.71
2023-02-14T00:51:33.314Z,1.70
2023-02-14T00:56:36.408Z,1.67
2023-02-14T01:01:40.143Z,1.60
2023-02-14T01:06:45.008Z,1.55
2023-02-14T01:11:48.951Z,1.52
2023-02-14T01:16:52.022Z,1.51
2023-02-14T01:21:55.191Z,1.55
2023-02-14T01:26:58.232Z,1.62
2023-02-14T01:32:01.613Z,1.67
2023-02-14T01:37:04.551Z,1.66
2023-02-14T01:42:07.605Z,1.68
2023-02-14T01:47:11.795Z,1.69
2023-02-14T01:52:28.638Z,1.68
2023-02-14T01:58:03.406Z,1.62
2023-02-14T02:03:08.453Z,1.54
2023-02-14T02:08:12.317Z,1.46
2023-02-14T02:13:20.156Z,1.41
2023-02-14T02:18:41.201Z,1.38
2023-02-14T02:24:14.237Z,1.35
2023-02-14T02:30:02.439Z,1.31
2023-02-14T02:35:45.488Z,1.26
2023-02-14T02:41:46.944Z,1.24
2023-02-14T02:47:22.190Z,1.29
2023-02-14T02:53:03.131Z,1.33
2023-02-14T02:58:06.243Z,1.42
2023-02-14T03:03:29.456Z,1.58
2023-02-14T03:08:32.379Z,1.84
2023-02-14T03:13:53.748Z,2.06
2023-02-14T03:19:54.210Z,2.18
2023-02-14T03:25:22.818Z,2.25
2023-02-14T03:30:45.489Z,2.26
2023-02-14T03:36:14.845Z,2.24
2023-02-14T03:41:33.038Z,2.23
2023-02-14T03:47:06.103Z,2.27
2023-02-14T03:52:12.464Z,2.29
2023-02-14T03:57:29.969Z,2.31
2023-02-14T04:02:43.621Z,2.33
2023-02-14T04:07:50.890Z,2.36
2023-02-14T04:12:54.389Z,2.39
2023-02-14T04:18:16.072Z,2.31
2023-02-14T04:23:19.035Z,2.27
2023-02-14T04:28:21.998Z,2.28
2023-02-14T04:33:24.917Z,2.30
2023-02-14T04:38:28.570Z,2.31
2023-02-14T04:43:31.540Z,2.33
2023-02-14T04:48:34.412Z,2.27
2023-02-14T04:53:40.497Z,2.26
2023-02-14T04:58:43.578Z,2.24
2023-02-14T05:03:46.554Z,2.23
2023-02-14T05:08:49.548Z,2.24
2023-02-14T05:13:52.562Z,2.26
2023-02-14T05:18:55.583Z,2.27
2023-02-14T05:23:59.711Z,2.29
2023-02-14T05:29:02.735Z,2.32
2023-02-14T05:34:05.801Z,2.33
2023-02-14T05:39:08.888Z,2.32
2023-02-14T05:44:11.877Z,2.36
2023-02-14T05:49:14.994Z,2.37
2023-02-14T05:54:27.099Z,2.42
2023-02-14T05:59:31.234Z,2.45
2023-02-14T06:04:34.325Z,2.48
2023-02-14T06:09:37.417Z,2.54
2023-02-14T06:14:42.991Z,2.59
2023-02-14T06:19:46.123Z,2.61
2023-02-14T06:24:49.062Z,2.66
2023-02-14T06:29:52.068Z,2.66
2023-02-14T06:34:55.083Z,2.67
2023-02-14T06:39:58.322Z,2.70
2023-02-14T06:45:02.668Z,2.74
2023-02-14T06:50:07.242Z,2.75
2023-02-14T06:55:13.305Z,2.82
2023-02-14T07:00:16.855Z,2.80
2023-02-14T07:05:20.028Z,2.82
2023-02-14T07:10:23.232Z,2.80
2023-02-14T07:15:26.790Z,2.83
2023-02-14T07:20:29.996Z,2.77
2023-02-14T07:25:33.184Z,2.81
2023-02-14T07:30:36.497Z,2.82
2023-02-14T07:35:39.580Z,2.86
2023-02-14T07:40:42.580Z,2.89
2023-02-14T07:45:45.480Z,2.89
2023-02-14T07:50:48.830Z,2.87
2023-02-14T07:55:52.812Z,2.91
2023-02-14T08:00:55.804Z,2.96
2023-02-14T08:05:58.740Z,2.92
2023-02-14T08:11:02.438Z,2.86
2023-02-14T08:16:06.007Z,2.86
2023-02-14T08:21:11.394Z,2.85
2023-02-14T08:26:14.630Z,2.97
2023-02-14T08:31:35.714Z,2.95
2023-02-14T08:36:39.887Z,2.95
2023-02-14T08:41:42.769Z,3.03
2023-02-14T08:46:45.687Z,3.07
2023-02-14T08:51:48.706Z,3.08
2023-02-14T08:56:51.735Z,3.16
2023-02-14T09:01:54.675Z,3.17
2023-02-14T09:06:57.704Z,3.14
2023-02-14T09:12:06.280Z,3.14
2023-02-14T09:17:10.626Z,3.19
2023-02-14T09:22:13.693Z,3.17
2023-02-14T09:27:16.771Z,3.24
2023-02-14T09:32:20.166Z,3.29
2023-02-14T09:37:23.216Z,3.34
2023-02-14T09:42:47.556Z,3.52
2023-02-14T09:48:46.448Z,3.51
2023-02-14T09:53:57.097Z,3.65
2023-02-14T09:59:25.493Z,3.76
2023-02-14T10:04:56.535Z,3.64
2023-02-14T10:10:39.852Z,3.85
2023-02-14T10:15:56.873Z,3.86
2023-02-14T10:21:03.340Z,3.83
2023-02-14T10:26:31.638Z,3.92
2023-02-14T10:32:23.054Z,4.13
2023-02-14T10:38:17.508Z,4.45
2023-02-14T10:43:58.447Z,4.39
2023-02-14T10:49:32.894Z,4.50
2023-02-14T10:54:42.472Z,4.61
2023-02-14T11:00:11.247Z,4.40
2023-02-14T11:05:31.285Z,4.53
2023-02-14T11:10:35.781Z,4.78
2023-02-14T11:15:40.616Z,5.00
2023-02-14T11:20:43.868Z,4.98
2023-02-14T11:25:55.626Z,5.03
2023-02-14T11:30:59.447Z,4.86
2023-02-14T11:36:06.273Z,4.72
2023-02-14T11:41:13.844Z,4.85
2023-02-14T11:46:28.261Z,4.91
2023-02-14T11:51:41.887Z,4.83
2023-02-14T11:57:02.087Z,4.86
2023-02-14T12:02:37.625Z,5.04
2023-02-14T12:07:45.566Z,5.26
2023-02-14T12:13:01.973Z,5.52
2023-02-14T12:18:34.614Z,5.61
2023-02-14T12:23:47.136Z,5.71
2023-02-14T12:29:04.361Z,5.75
2023-02-14T12:34:10.680Z,5.86
2023-02-14T12:39:51.951Z,6.08
2023-02-14T12:45:13.099Z,6.30
2023-02-14T12:50:31.780Z,6.41
2023-02-14T12:56:03.484Z,6.46
2023-02-14T13:01:21.793Z,6.23
2023-02-14T13:06:38.625Z,5.78
2023-02-14T13:11:47.261Z,5.84
2023-02-14T13:17:38.737Z,5.98
2023-02-14T13:22:43.306Z,6.01
2023-02-14T13:27:46.340Z,6.02
2023-02-14T13:32:53.583Z,6.16
2023-02-14T13:38:05.251Z,6.21
2023-02-14T13:43:08.148Z,6.27
2023-02-14T13:48:19.885Z,6.23
2023-02-14T13:53:42.033Z,6.34
2023-02-14T13:59:03.243Z,6.31
2023-02-14T14:04:26.140Z,6.37
2023-02-14T14:09:44.383Z,6.49
2023-02-14T14:15:08.345Z,6.48
2023-02-14T14:20:18.935Z,6.56
2023-02-14T14:25:33.513Z,6.62
2023-02-14T14:30:37.785Z,6.54
2023-02-14T14:36:02.586Z,6.52
2023-02-14T14:41:05.838Z,6.46
2023-02-14T14:46:13.325Z,6.39
2023-02-14T14:51:36.018Z,6.35
2023-02-14T14:56:53.078Z,6.28
2023-02-14T15:01:56.602Z,6.31
2023-02-14T15:07:36.817Z,6.24
2023-02-14T15:12:58.535Z,6.13
2023-02-14T15:18:07.300Z,6.06
2023-02-14T15:23:20.822Z,5.95
2023-02-14T15:28:35.854Z,5.83
2023-02-14T15:33:39.822Z,5.68
2023-02-14T15:38:43.664Z,5.56
2023-02-14T15:44:07.545Z,5.44
2023-02-14T15:49:17.553Z,5.25
2023-02-14T15:54:33.512Z,4.97
2023-02-14T15:59:43.088Z,4.81
2023-02-14T16:04:46.719Z,4.68
2023-02-14T16:09:53.921Z,4.48
2023-02-14T16:15:23.880Z,4.37
2023-02-14T16:20:40.122Z,4.25
2023-02-14T16:25:43.144Z,4.05
2023-02-14T16:30:52.718Z,3.90
2023-02-14T16:36:08.357Z,3.86
2023-02-14T16:41:23.102Z,3.82
2023-02-14T16:46:31.964Z,3.73
2023-02-14T16:51:43.670Z,3.69
2023-02-14T16:57:18.866Z,3.70
2023-02-14T17:02:24.494Z,3.66
2023-02-14T17:07:32.328Z,3.57
2023-02-14T17:12:40.627Z,3.46
2023-02-14T17:17:47.292Z,3.32
2023-02-14T17:22:50.799Z,3.17
2023-02-14T17:27:54.002Z,3.01
2023-02-14T17:32:57.029Z,2.88
2023-02-14T17:38:00.025Z,2.80
2023-02-14T17:43:03.133Z,2.72
2023-02-14T17:48:06.761Z,2.68
2023-02-14T17:53:11.046Z,2.65
2023-02-14T17:58:14.074Z,2.58
2023-02-14T18:03:17.310Z,2.54
2023-02-14T18:08:21.420Z,2.58
2023-02-14T18:13:25.907Z,2.71
2023-02-14T18:18:28.905Z,2.84
2023-02-14T18:23:33.142Z,2.98
2023-02-14T18:28:37.024Z,3.10
2023-02-14T18:33:41.177Z,3.22
2023-02-14T18:38:46.757Z,3.14
2023-02-14T18:43:50.761Z,3.13
2023-02-14T18:48:56.655Z,3.24
2023-02-14T18:54:02.323Z,3.37
2023-02-14T18:59:10.120Z,3.59
2023-02-14T19:04:13.799Z,3.81
2023-02-14T19:09:17.684Z,4.00
2023-02-14T19:14:20.606Z,4.12
2023-02-14T19:19:24.158Z,4.16
2023-02-14T19:24:27.823Z,4.17
2023-02-14T19:29:31.124Z,4.27
2023-02-14T19:34:35.094Z,4.19
2023-02-14T19:39:38.339Z,4.01
2023-02-14T19:44:41.554Z,3.85
2023-02-14T19:49:44.624Z,3.87
2023-02-14T19:54:47.741Z,3.85
2023-02-14T19:59:50.890Z,3.73
2023-02-14T20:04:59.000Z,3.69
2023-02-14T20:10:01.988Z,3.75
2023-02-14T20:15:08.212Z,3.78
2023-02-14T20:20:13.920Z,3.77
2023-02-14T20:25:17.108Z,3.67
2023-02-14T20:30:20.928Z,3.64
2023-02-14T20:35:24.156Z,3.57
2023-02-14T20:40:27.369Z,3.53
2023-02-14T20:45:31.144Z,3.51
2023-02-14T20:50:34.419Z,3.51
2023-02-14T20:55:44.791Z,3.51
2023-02-14T21:00:49.126Z,3.43
2023-02-14T21:05:52.169Z,3.42
2023-02-14T21:10:55.121Z,3.43
2023-02-14T21:16:18.390Z,3.42
2023-02-14T21:21:30.030Z,3.43
2023-02-14T21:26:33.256Z,3.40
2023-02-14T21:31:36.905Z,3.36
2023-02-14T21:36:40.174Z,3.33
2023-02-14T21:41:43.453Z,3.31
2023-02-14T21:46:47.133Z,3.37
2023-02-14T21:51:50.292Z,3.54
2023-02-14T21:56:53.452Z,3.57
2023-02-14T22:01:56.565Z,3.53
2023-02-14T22:06:59.502Z,3.40
2023-02-14T22:12:02.472Z,3.43
2023-02-14T22:17:05.494Z,3.47
2023-02-14T22:22:10.154Z,3.49
2023-02-14T22:27:16.990Z,3.42
2023-02-14T22:32:23.634Z,3.51
2023-02-14T22:37:26.717Z,3.63
2023-02-14T22:42:29.933Z,3.65
2023-02-14T22:47:33.193Z,3.53
2023-02-14T22:52:36.131Z,3.33
2023-02-14T22:57:39.079Z,3.37
2023-02-14T23:02:42.252Z,3.36
2023-02-14T23:07:45.270Z,3.34
2023-02-14T23:13:07.214Z,3.44
2023-02-14T23:18:32.000Z,3.62
2023-02-14T23:23:34.863Z,3.56
2023-02-14T23:28:37.938Z,3.44
2023-02-14T23:33:40.893Z,3.34
2023-02-14T23:38:43.789Z,3.33
2023-02-14T23:43:48.947Z,3.45
2023-02-14T23:48:51.931Z,3.59
2023-02-14T23:53:55.207Z,3.70
2023-02-14T23:58:58.169Z,3.61
